Scandia, Pennsylvania
Current Conditions -  °F | °C
As of 8:35 PM on Thursday 18 Dec 2014 (Local Time) from KJHW Reporting Station
Overcast Overcast  
Wind Chill: 21°   Ceiling: 600
Heat Index: 28°   Visibility: 3mi
Dew Point: 25°   Wind: 7mph
Humidity: 86%   Direction: 300°WNW
Pressure: 30.04"   Gusts: 17mph
Location:  41.9507°N, 79.0368°W
Report Text: KJHW 190135Z 30006G15KT 3SM OVC006 M02/M04 A3004 RMK AO1
Loading
Personal Weather Stations






























Interactive Weather Map New forecast layout! Learn more

10-Day Weather Forecast

Advertisements
Track Severe Weather on mobile